• Join FlightAware (Why Join?)
  • Login
  • US Flag 
Rudolph Flight #1: Arrived! 
10:22PM EST


 

Airport Tracker/Info


-or-


 

Live Flight TrackerFlight Track Log ✈ UCA3596 ✈ 06-Jan-2014 ✈ KBGM - KIAD

Flight Track Log - Related Links

Times and Time Zones

All times are in EST time to prevent confusion due to time zone crossing. See the UCA3596 flight status page for this flight to view local times or setup timezone preferences in your user account.

Time Position Orientation Groundspeed Altitude Reporting Facility
EST Latitude Longitude Course Direction KTS MPH feet Rate Location/Type
04:43PM 42.2019 -76.0392 212° Southwest 141 162 3,800  Level New York Center
04:44PM 42.1589 -76.0750 212° Southwest 160 184 5,200 1,380 Climbing New York Center
04:45PM 42.1178 -76.1108 213° Southwest 176 203 6,700 1,200 Climbing New York Center
04:46PM 42.0744 -76.1492 213° Southwest 189 217 7,600 1,140 Climbing New York Center
04:47PM 42.0203 -76.1922 211° Southwest 204 235 9,000 1,080 Climbing New York Center
04:48PM 41.9769 -76.2306 213° Southwest 209 241 9,800 480 Climbing New York Center
04:49PM 41.9206 -76.2817 214° Southwest 214 246 10,000  Climbing New York Center
04:50PM 41.8644 -76.3242 209° Southwest 229 264 9,900 -60 Descending New York Center
04:51PM 41.8208 -76.3625 213° Southwest 234 269 9,900  Level New York Center
04:52PM 41.7664 -76.4133 215° Southwest 234 269 10,000  Climbing New York Center
04:53PM 41.7100 -76.4586 211° Southwest 234 269 10,000  Level New York Center
04:54PM 41.6517 -76.5064 211° Southwest 234 269 10,000  Level New York Center
04:55PM 41.5972 -76.5544 213° Southwest 234 269 10,000  Level New York Center
04:56PM 41.5494 -76.5947 212° Southwest 234 269 10,000  Level New York Center
04:57PM 41.4972 -76.6372 211° Southwest 239 275 10,000  Level New York Center
04:58PM 41.4428 -76.6853 213° Southwest 239 275 10,000  Level New York Center
04:59PM 41.3817 -76.7406 214° Southwest 239 275 10,000  Level New York Center
05:00PM 41.3256 -76.7797 208° Southwest 239 275 10,100  Climbing New York Center
05:01PM 41.2583 -76.7931 188° South 239 275 10,100  Level New York Center
05:02PM 41.1931 -76.8039 187° South 239 275 10,100  Level New York Center
05:03PM 41.1300 -76.8175 189° South 239 275 10,100  Level New York Center
05:04PM 41.0647 -76.8311 189° South 239 275 10,100  Level New York Center
05:05PM 40.9994 -76.8444 189° South 239 275 10,100  Level New York Center
05:06PM 40.9403 -76.8583 190° South 239 275 10,100  Level New York Center
05:07PM 40.8689 -76.8714 188° South 239 275 10,100  Level New York Center
05:08PM 40.8119 -76.8828 189° South 239 275 10,100  Level New York Center
05:09PM 40.7400 -76.9008 191° South 239 275 10,100  Level New York Center
05:10PM 40.6828 -76.9206 195° South 239 275 10,100 -60 Level New York Center
05:11PM 40.6089 -76.9411 192° South 244 281 10,000 -60 Descending New York Center
05:12PM 40.5536 -76.9608 195° South 244 281 10,000  Level New York Center
05:13PM 40.4836 -76.9819 193° South 239 275 10,000  Level New York Center
05:14PM 40.4264 -76.9986 193° South 239 275 10,000  Level New York Center
05:16PM 40.2833 -77.0500 195° South 227 261 10,100  Climbing Potomac TRACON
05:17PM 40.2167 -77.0667 191° South 220 253 10,100  Level Potomac TRACON
05:18PM 40.1500 -77.0833 191° South 224 258 10,100 -180 Level Potomac TRACON
05:19PM 40.1000 -77.1000 194° South 231 266 9,800 -420 Descending Potomac TRACON
05:20PM 40.0333 -77.1167 191° South 237 273 9,300 -360 Descending Potomac TRACON
05:21PM 39.9667 -77.1333 191° South 230 265 9,100 -180 Descending Potomac TRACON
05:22PM 39.9000 -77.1667 201° Southwest 227 261 9,000 -240 Descending Potomac TRACON
05:23PM 39.8500 -77.1833 194° South 235 270 8,700 -420 Descending Potomac TRACON
05:24PM 39.7833 -77.2167 201° Southwest 237 273 8,200 -540 Descending Potomac TRACON
05:25PM 39.7167 -77.2333 191° South 228 262 7,700 -540 Descending Potomac TRACON
05:26PM 39.6667 -77.2667 207° Southwest 226 260 7,200 -540 Descending Potomac TRACON
05:27PM 39.6000 -77.2833 191° South 206 237 6,700 -540 Descending Potomac TRACON
05:28PM 39.5500 -77.3000 194° South 207 238 6,200 -540 Descending Potomac TRACON
05:29PM 39.5000 -77.3333 207° Southwest 211 243 5,700 -480 Descending Potomac TRACON
05:30PM 39.4333 -77.3500 191° South 213 245 5,300 -480 Descending Potomac TRACON
05:31PM 39.3833 -77.3667 194° South 222 255 4,700 -600 Descending Potomac TRACON
05:32PM 39.3167 -77.3667 180° South 225 259 4,100 -300 Descending Potomac TRACON
05:33PM 39.2500 -77.3667 180° South 227 261 4,100 -60 Level Potomac TRACON
05:34PM 39.1833 -77.3500 169° South 235 270 4,000 -240 Descending Potomac TRACON
05:35PM 39.1167 -77.3500 180° South 227 261 3,700 -420 Descending Potomac TRACON
05:36PM 39.0500 -77.3500 180° South 230 265 3,200 -360 Descending Potomac TRACON
05:37PM 38.9833 -77.3500 180° South 239 275 3,000 -60 Descending Potomac TRACON
05:38PM 38.9167 -77.3500 180° South 230 265 3,100  Climbing Potomac TRACON
05:39PM 38.8500 -77.3500 180° South 197 227 3,000 -360 Descending Potomac TRACON
05:40PM 38.8167 -77.3833 218° Southwest 156 180 2,400 -480 Descending Potomac TRACON
05:41PM 38.8500 -77.4167 322° Northwest 131 151 2,000 -480 Descending Potomac TRACON
05:42PM 38.8667 -77.4333 322° Northwest 117 135 1,400 -600 Descending Potomac TRACON
05:43PM 38.9000 -77.4333 360° North 106 122 800 -600 Descending Potomac TRACON
05:45PM 38.9333 -77.4500 349° North  Level FlightAware Approximate
05:52PM 38.9474 -77.4599 349° North  Level Estimated
05:53PM 38.9474 -77.4599 349° North  Level Estimated